Terminal Aerodrome Forecast
Issued by NWS

Home | Current Version | Previous Version | Text Only | Print | Product List | Glossary Off
Versions: 1 2 3 4 5 6 7 8 9 10 11 12 13 14 15 16 17 18 19 20 21 22 23 24 25 26 27

000
FTUS42 KMHX 241700 CCA
TAFOAJ
TAF COR
KOAJ 241726Z 2418/2518 19010G20KT 4SM RA OVC010
      TEMPO 2418/2420 2SM +RA BKN007
     FM250000 19010KT 4SM BR VCSH OVC007
     FM250700 21012KT 4SM BR VCSH OVC015
     FM250900 25010KT P6SM OVC050
      AMD LTD TO CLD VIS AND WIND=

USA.gov is the U.S. government's official web portal to all federal, state and local government web resources and services.